Terminal Aerodrome Forecast
Issued by NWS Bismarck, ND

Home | Current Version | Previous Version | Graphics & Text | Print | Product List | Glossary On
Versions: 1 2 3 4 5 6 7 8 9 10 11 12 13 14 15 16 17 18 19 20 21
000
FTUS43 KBIS 052326
TAFISN
TAF
KISN 052326Z 0600/0624 35014KT 5SM FU SCT050 BKN150
     FM060200 34008KT 4SM FU SCT040 BKN150
     FM061000 32005KT 2SM FU BKN035 BKN100
     FM061500 33008KT 5SM FU SCT040 BKN150=

USA.gov is the U.S. government's official web portal to all federal, state and local government web resources and services.